createdAt,value
2022-09-23T07:05:09.475Z,5.50
2022-09-23T07:15:39.959Z,6.15
2022-09-23T07:20:52.384Z,6.38
2022-09-23T07:27:13.163Z,5.10
2022-09-23T07:31:47.684Z,5.68
2022-09-23T07:36:51.692Z,6.15
2022-09-23T07:42:12.178Z,5.33
2022-09-23T07:47:49.992Z,5.43
2022-09-23T07:52:53.702Z,5.28
2022-09-23T07:58:28.128Z,5.43
2022-09-23T08:03:33.467Z,5.73
2022-09-23T08:08:39.642Z,5.45
2022-09-23T08:13:44.301Z,5.10
2022-09-23T08:18:49.514Z,3.72
2022-09-23T08:23:55.210Z,3.88
2022-09-23T08:29:02.191Z,3.50
2022-09-23T08:34:07.748Z,4.67
2022-09-23T08:39:16.133Z,3.53
2022-09-23T08:44:33.167Z,3.83
2022-09-23T08:49:49.644Z,3.65
2022-09-23T08:54:59.369Z,4.05
2022-09-23T09:00:07.575Z,4.07
2022-09-23T09:05:53.941Z,5.93
2022-09-23T09:11:13.363Z,4.32
2022-09-23T09:16:59.007Z,4.28
2022-09-23T09:22:13.511Z,3.75
2022-09-23T09:27:17.072Z,4.00
2022-09-23T09:32:46.343Z,3.97
2022-09-23T09:38:20.018Z,3.80
2022-09-23T09:43:23.806Z,3.75
2022-09-23T09:48:37.889Z,3.67
2022-09-23T09:53:43.000Z,3.30
2022-09-23T09:58:49.760Z,3.58
2022-09-23T10:03:59.533Z,2.67
2022-09-23T10:09:19.352Z,2.33
2022-09-23T10:14:23.700Z,1.50
2022-09-23T10:19:29.637Z,2.35
2022-09-23T10:25:02.474Z,1.60
2022-09-23T10:30:58.516Z,2.10
2022-09-23T10:36:02.575Z,1.73
2022-09-23T10:41:37.362Z,1.85
2022-09-23T10:46:48.821Z,2.10
2022-09-23T10:52:04.118Z,2.10
2022-09-23T10:57:40.510Z,2.38
2022-09-23T11:03:39.067Z,1.83
2022-09-23T11:08:56.363Z,1.83
2022-09-23T11:14:19.622Z,1.70
2022-09-23T11:19:45.427Z,2.20
2022-09-23T11:25:01.538Z,1.90
2022-09-23T11:30:11.795Z,1.77
2022-09-23T11:35:21.541Z,2.03
2022-09-23T11:40:31.598Z,1.88
2022-09-23T11:45:40.998Z,1.80
2022-09-23T11:50:55.072Z,1.60
2022-09-23T11:56:04.592Z,1.50
2022-09-23T12:01:14.562Z,1.75
2022-09-23T12:06:22.869Z,2.08
2022-09-23T12:11:32.538Z,1.50
2022-09-23T12:17:08.925Z,2.72
2022-09-23T12:22:27.184Z,3.30
2022-09-23T12:27:36.966Z,2.25
2022-09-23T12:32:43.050Z,1.60
2022-09-23T12:37:46.962Z,2.50
2022-09-23T12:42:51.713Z,1.97
2022-09-23T12:47:56.639Z,2.20
2022-09-23T12:53:55.320Z,2.15
2022-09-23T12:59:00.665Z,1.98
2022-09-23T13:04:53.077Z,2.00
2022-09-23T13:10:04.130Z,2.00
2022-09-23T13:15:18.108Z,1.92
2022-09-23T13:20:38.193Z,1.60
2022-09-23T13:25:44.584Z,1.80
2022-09-23T13:30:52.286Z,2.00
2022-09-23T13:36:04.109Z,1.83
2022-09-23T13:41:13.867Z,1.58
2022-09-23T13:46:20.069Z,1.70
2022-09-23T13:51:28.234Z,1.70
2022-09-23T13:56:33.494Z,1.80
2022-09-23T14:01:39.459Z,1.80
2022-09-23T14:06:45.103Z,1.80
2022-09-23T14:11:51.663Z,1.80
2022-09-23T14:16:56.106Z,1.33
2022-09-23T14:27:15.388Z,1.48
2022-09-23T14:37:49.267Z,1.45
2022-09-23T14:42:59.769Z,1.73
2022-09-23T14:48:08.140Z,1.70
2022-09-23T14:53:36.547Z,1.60
2022-09-23T14:58:51.013Z,1.75
2022-09-23T15:03:57.885Z,1.80
2022-09-23T15:09:06.202Z,1.75
2022-09-23T15:14:36.707Z,1.90
2022-09-23T15:19:50.397Z,1.70
2022-09-23T15:25:18.121Z,1.95
2022-09-23T15:30:32.233Z,2.55
2022-09-23T15:36:23.548Z,2.58
2022-09-23T15:41:33.594Z,2.30
2022-09-23T15:55:01.053Z,1.95
2022-09-23T15:59:43.206Z,2.90
2022-09-23T16:05:05.427Z,2.70
2022-09-23T16:10:23.924Z,2.85
2022-09-23T16:15:39.241Z,2.55
2022-09-23T16:20:45.501Z,3.10
2022-09-23T16:25:50.777Z,3.50
2022-09-23T16:30:58.927Z,3.95
2022-09-23T16:36:03.351Z,3.38
2022-09-23T16:41:09.009Z,11.90
2022-09-23T16:46:18.153Z,3.03
2022-09-23T16:51:24.336Z,3.70
2022-09-23T16:56:31.080Z,3.72
2022-09-23T17:01:53.680Z,3.70
2022-09-23T17:06:57.655Z,4.63
2022-09-23T17:12:10.533Z,4.37
2022-09-23T17:17:15.539Z,4.53
2022-09-23T17:22:19.155Z,5.00
2022-09-23T17:27:24.892Z,6.63
2022-09-23T17:32:29.758Z,5.82
2022-09-23T17:42:41.017Z,6.80
2022-09-23T17:47:51.194Z,8.38
2022-09-23T17:52:55.291Z,10.93
2022-09-23T17:58:00.715Z,13.20
2022-09-23T18:03:21.131Z,13.35
2022-09-23T18:08:24.858Z,11.65
2022-09-23T18:13:31.939Z,12.38
2022-09-23T18:18:38.979Z,13.40
2022-09-23T18:23:42.582Z,11.23
2022-09-23T18:28:51.978Z,11.88
2022-09-23T18:34:03.920Z,12.30
2022-09-23T18:39:07.887Z,11.35
2022-09-23T18:44:11.603Z,10.80
2022-09-23T18:49:36.555Z,11.70
2022-09-23T18:54:40.304Z,11.45
2022-09-23T18:59:47.333Z,15.23
2022-09-23T19:04:53.163Z,16.00
2022-09-23T19:09:56.762Z,15.13
2022-09-23T19:15:02.938Z,14.52
2022-09-23T19:20:12.595Z,13.65
2022-09-23T19:25:17.537Z,14.45
2022-09-23T19:36:02.545Z,13.40
2022-09-23T19:41:16.036Z,12.02
2022-09-23T19:46:20.605Z,10.75
2022-09-23T19:51:41.938Z,12.65
2022-09-23T19:56:47.184Z,14.85
2022-09-23T20:01:51.102Z,13.25
2022-09-23T20:06:56.347Z,14.13
2022-09-23T20:12:02.647Z,14.18
2022-09-23T20:17:07.643Z,12.65
2022-09-23T20:27:38.491Z,12.93
2022-09-23T20:32:44.765Z,13.40
2022-09-23T20:37:52.384Z,12.57
2022-09-23T20:42:59.171Z,11.02
2022-09-23T20:48:03.360Z,11.68
2022-09-23T20:53:19.945Z,12.32
2022-09-23T20:58:29.155Z,11.67
2022-09-23T21:03:33.847Z,11.98
2022-09-23T21:08:39.338Z,12.77
2022-09-23T21:13:47.112Z,13.88
2022-09-23T21:18:52.513Z,16.65
2022-09-23T21:24:17.376Z,12.68
2022-09-23T21:29:24.151Z,12.40
2022-09-23T21:34:30.050Z,12.43
2022-09-23T21:40:06.640Z,11.00
2022-09-23T21:45:11.650Z,11.52
2022-09-23T21:55:20.218Z,10.43
2022-09-23T22:00:23.797Z,11.43
2022-09-23T22:05:27.386Z,14.18
2022-09-23T22:10:32.483Z,12.75
2022-09-23T22:38:41.869Z,10.32
2022-09-23T22:43:46.840Z,10.38
2022-09-23T22:48:56.628Z,10.70
2022-09-23T22:54:02.906Z,10.02
2022-09-23T22:59:09.701Z,9.57
2022-09-23T23:04:16.496Z,9.05
2022-09-23T23:09:24.065Z,9.23
2022-09-23T23:14:31.496Z,8.27
2022-09-23T23:19:37.204Z,8.32
2022-09-23T23:24:42.973Z,7.30
2022-09-23T23:29:47.971Z,7.70
2022-09-23T23:34:52.953Z,8.00
2022-09-23T23:39:58.666Z,7.80
2022-09-23T23:45:03.114Z,8.90
2022-09-23T23:50:08.298Z,7.60
